Time;durP1;ratioP1;P1;durP2;ratioP2;P2;SDS_P1;SDS_P2;PMS_P1;PMS_P2;Temp;Humidity;BMP_temperature;BMP_pressure;BME280_temperature;BME280_humidity;BME280_pressure;Samples;Min_cycle;Max_cycle;Signal;HPM_P1;HPM_P2
2023/03/06 00:02:32;;;;;;;10.45;4.50;;;;;;;4.81;73.64;99039.31;12220809;19;20022;-80
2023/03/06 00:06:34;;;;;;;9.25;4.57;;;;;;;4.82;73.71;99038.28;12203919;19;20002;-80
2023/03/06 00:10:36;;;;;;;8.65;4.68;;;;;;;4.80;73.73;99033.03;12181106;19;20030;-80
2023/03/06 00:14:38;;;;;;;8.70;4.35;;;;;;;4.82;73.50;99032.81;12201143;19;20392;-80
2023/03/06 00:18:40;;;;;;;7.47;4.22;;;;;;;4.83;72.98;99029.03;12235863;19;20060;-81
2023/03/06 00:22:42;;;;;;;8.52;4.30;;;;;;;4.83;73.51;99028.19;12222005;19;20070;-81
2023/03/06 00:26:44;;;;;;;12.20;4.50;;;;;;;4.82;73.23;99019.19;12202348;19;20023;-81
2023/03/06 00:30:46;;;;;;;9.82;4.43;;;;;;;4.83;74.12;99007.19;12201574;19;20256;-81
2023/03/06 00:34:49;;;;;;;10.80;5.20;;;;;;;4.83;73.47;99011.81;12183389;19;20030;-81
2023/03/06 00:38:50;;;;;;;10.50;4.45;;;;;;;4.80;73.73;99004.91;12199963;19;20002;-81
2023/03/06 00:42:52;;;;;;;12.07;4.60;;;;;;;4.82;73.95;99007.41;12202975;19;20019;-80
2023/03/06 00:46:54;;;;;;;10.43;4.97;;;;;;;4.84;74.19;99000.66;12177746;19;20034;-81
2023/03/06 00:50:55;;;;;;;12.00;4.93;;;;;;;4.76;73.85;98987.34;12200585;19;20031;-80
2023/03/06 00:54:57;;;;;;;9.68;4.57;;;;;;;4.76;73.92;98987.34;12198529;19;20023;-80
2023/03/06 00:58:58;;;;;;;9.98;4.70;;;;;;;4.76;73.95;98987.34;12177261;19;20034;-79
2023/03/06 01:03:00;;;;;;;9.00;4.55;;;;;;;4.71;73.92;98982.56;12195681;19;20366;-80
2023/03/06 01:07:02;;;;;;;10.27;5.28;;;;;;;4.68;73.52;98977.59;12202449;19;20007;-79
2023/03/06 01:11:04;;;;;;;11.57;5.30;;;;;;;4.66;73.97;98968.78;12180181;19;20014;-81
2023/03/06 01:15:06;;;;;;;12.20;5.07;;;;;;;4.66;73.76;98968.78;12194525;19;20016;-82
2023/03/06 01:19:08;;;;;;;10.47;5.30;;;;;;;4.69;73.82;98962.03;12198634;19;20475;-81
2023/03/06 01:23:10;;;;;;;13.00;5.00;;;;;;;4.67;74.42;98953.25;12179714;19;20260;-80
2023/03/06 01:27:11;;;;;;;11.20;4.97;;;;;;;4.65;74.15;98947.19;12204689;19;20011;-81
2023/03/06 01:31:13;;;;;;;11.30;4.57;;;;;;;4.62;74.16;98939.47;12211506;19;20027;-80
2023/03/06 01:35:15;;;;;;;11.40;5.30;;;;;;;4.63;74.32;98941.13;12211166;19;20017;-81
2023/03/06 01:39:16;;;;;;;10.68;5.32;;;;;;;4.60;74.36;98934.25;12207306;19;20039;-80
2023/03/06 01:43:25;;;;;;;11.18;4.97;;;;;;;4.61;74.65;98924.16;12191078;19;20024;-80
2023/03/06 01:47:28;;;;;;;9.57;4.90;;;;;;;4.60;74.45;98917.03;12212134;19;20065;-80
2023/03/06 01:51:35;;;;;;;10.70;5.25;;;;;;;4.57;74.32;98921.06;12209184;19;20011;-81
2023/03/06 01:55:37;;;;;;;10.65;5.03;;;;;;;4.55;74.53;98906.81;12187521;19;20429;-80
2023/03/06 01:59:41;;;;;;;7.60;3.53;;;;;;;4.54;74.28;98906.00;12210759;19;20377;-79
2023/03/06 02:03:46;;;;;;;11.80;6.07;;;;;;;4.60;74.50;98911.59;12208727;19;20047;-80
2023/03/06 02:07:49;;;;;;;9.13;4.88;;;;;;;4.58;74.67;98903.66;12187690;19;20014;-80
2023/03/06 02:11:50;;;;;;;9.70;5.00;;;;;;;4.56;74.87;98901.13;12207923;19;20333;-80
2023/03/06 02:15:52;;;;;;;11.32;5.30;;;;;;;4.56;74.70;98890.22;12209679;19;20026;-80
2023/03/06 02:20:12;;;;;;;11.05;5.90;;;;;;;4.60;75.21;98889.75;12185601;19;20006;-80
2023/03/06 02:24:37;;;;;;;10.68;5.38;;;;;;;4.62;75.36;98890.38;12211368;19;20002;-80
2023/03/06 02:28:39;;;;;;;11.90;5.03;;;;;;;4.63;75.05;98890.13;12187120;19;20131;-78
2023/03/06 02:32:41;;;;;;;13.85;5.53;;;;;;;4.62;75.18;98887.63;12204733;19;20070;-79
2023/03/06 02:36:52;;;;;;;14.35;5.72;;;;;;;4.55;75.49;98879.53;12208358;19;20002;-80
2023/03/06 02:40:56;;;;;;;13.88;6.10;;;;;;;4.55;75.96;98876.81;12182374;19;20002;-80
2023/03/06 02:45:04;;;;;;;11.10;5.63;;;;;;;4.51;76.05;98868.25;12205332;19;20002;-80
2023/03/06 02:49:06;;;;;;;14.63;7.00;;;;;;;4.43;76.60;98859.56;12209545;19;20609;-80
2023/03/06 02:53:10;;;;;;;12.25;6.57;;;;;;;4.41;77.13;98859.81;12181832;19;20025;-79
2023/03/06 02:57:11;;;;;;;12.73;6.43;;;;;;;4.37;77.64;98852.31;12207429;19;20508;-79
2023/03/06 03:01:13;;;;;;;13.73;6.68;;;;;;;4.35;77.89;98858.03;12203418;19;20676;-79
2023/03/06 03:05:16;;;;;;;12.00;6.13;;;;;;;4.31;78.68;98860.41;12205468;19;20835;-78
2023/03/06 03:09:23;;;;;;;11.80;5.80;;;;;;;4.28;79.06;98860.00;12203399;19;20026;-78
2023/03/06 03:13:25;;;;;;;15.68;6.18;;;;;;;4.20;80.47;98852.19;12183306;19;20038;-79
2023/03/06 03:17:26;;;;;;;14.15;6.05;;;;;;;4.18;80.25;98852.41;12210721;19;20015;-80
2023/03/06 03:21:28;;;;;;;15.68;6.30;;;;;;;4.17;80.92;98845.28;12205007;19;20591;-79
2023/03/06 03:25:30;;;;;;;12.35;6.00;;;;;;;4.17;81.34;98841.75;12181059;19;20006;-79
2023/03/06 03:29:32;;;;;;;14.52;6.13;;;;;;;4.22;80.84;98850.84;12200905;19;20038;-79
2023/03/06 03:33:33;;;;;;;13.02;6.55;;;;;;;4.23;80.88;98835.34;12205899;19;20089;-81
2023/03/06 03:37:36;;;;;;;12.67;6.27;;;;;;;4.23;80.95;98840.81;12176892;19;20019;-80
2023/03/06 03:41:38;;;;;;;11.20;6.28;;;;;;;4.27;81.20;98836.53;12200644;19;20011;-80
2023/03/06 03:45:42;;;;;;;16.40;6.60;;;;;;;4.27;80.97;98839.25;12204232;19;20348;-80
2023/03/06 03:49:44;;;;;;;14.82;6.70;;;;;;;4.28;80.93;98835.47;12182213;19;20383;-80
2023/03/06 03:53:46;;;;;;;15.40;6.97;;;;;;;4.28;81.13;98838.19;12203380;19;20014;-80
2023/03/06 03:57:52;;;;;;;11.52;7.03;;;;;;;4.25;81.30;98834.06;12202290;19;20007;-80
2023/03/06 04:01:54;;;;;;;12.75;6.78;;;;;;;4.20;81.67;98825.72;12179726;19;20011;-78
2023/03/06 04:05:58;;;;;;;14.07;7.07;;;;;;;4.18;81.93;98825.13;12202318;19;20132;-80
2023/03/06 04:10:02;;;;;;;13.02;6.32;;;;;;;4.22;82.15;98811.84;12199826;19;20138;-78
2023/03/06 04:14:07;;;;;;;15.60;6.75;;;;;;;4.16;82.22;98808.16;12179122;19;20006;-80
2023/03/06 04:18:08;;;;;;;16.02;6.15;;;;;;;4.12;82.41;98804.25;12201791;19;20007;-80
2023/03/06 04:22:10;;;;;;;15.32;7.63;;;;;;;4.10;82.74;98798.19;12202369;19;20698;-77
2023/03/06 04:26:13;;;;;;;13.38;6.93;;;;;;;4.06;83.26;98797.81;12180582;19;20021;-79
2023/03/06 04:30:15;;;;;;;15.10;7.13;;;;;;;4.05;83.24;98804.34;12201739;19;20006;-79
2023/03/06 04:34:17;;;;;;;12.48;6.50;;;;;;;4.02;83.71;98799.38;12179708;19;20007;-79
2023/03/06 04:38:20;;;;;;;14.70;6.25;;;;;;;4.04;83.65;98788.22;12207148;19;20010;-79
2023/03/06 04:42:22;;;;;;;12.73;6.67;;;;;;;4.08;83.79;98782.06;12211964;19;20123;-78
2023/03/06 04:46:30;;;;;;;12.95;6.07;;;;;;;4.31;82.15;98778.59;12245417;19;19999;-80
2023/03/06 04:50:31;;;;;;;16.55;6.38;;;;;;;4.33;82.47;98783.78;12263535;19;21103;-81
2023/03/06 04:54:33;;;;;;;17.07;7.27;;;;;;;4.29;83.32;98777.97;12211831;19;20105;-79
2023/03/06 04:58:36;;;;;;;15.38;6.07;;;;;;;4.21;84.36;98769.31;12197166;19;20042;-79
2023/03/06 05:02:40;;;;;;;12.70;5.60;;;;;;;3.99;86.03;98778.03;12247742;19;20029;-79
2023/03/06 05:06:42;;;;;;;15.80;6.45;;;;;;;3.92;87.32;98771.81;12211178;19;20007;-80
2023/03/06 05:10:44;;;;;;;15.15;6.03;;;;;;;3.85;89.12;98777.38;12176824;19;20014;-79
2023/03/06 05:14:45;;;;;;;13.02;6.53;;;;;;;3.80;91.42;98773.69;12196011;19;20026;-79
2023/03/06 05:18:48;;;;;;;18.65;7.97;;;;;;;3.77;90.78;98774.97;12199150;19;20033;-79
2023/03/06 05:22:51;;;;;;;16.35;7.18;;;;;;;3.78;91.63;98767.66;12174511;19;20013;-78
2023/03/06 05:26:52;;;;;;;16.80;7.30;;;;;;;3.75;93.19;98768.09;12198185;19;20559;-79
2023/03/06 05:30:55;;;;;;;13.15;5.90;;;;;;;3.74;94.18;98769.97;12195662;19;20015;-78
2023/03/06 05:34:56;;;;;;;13.47;7.07;;;;;;;3.71;93.57;98759.53;12174550;19;20071;-78
2023/03/06 05:38:58;;;;;;;15.85;7.00;;;;;;;3.76;93.25;98764.31;12197618;19;20014;-79
2023/03/06 05:42:59;;;;;;;14.80;7.05;;;;;;;3.72;93.22;98763.94;12194394;19;20006;-79
2023/03/06 05:47:01;;;;;;;14.20;6.45;;;;;;;3.69;92.97;98760.84;12173770;19;20010;-79
2023/03/06 05:51:04;;;;;;;14.57;6.83;;;;;;;3.68;93.08;98757.28;12195272;19;20002;-79
2023/03/06 05:55:10;;;;;;;15.95;7.93;;;;;;;3.69;93.30;98752.66;12195395;19;20284;-80
2023/03/06 05:59:11;;;;;;;15.05;6.78;;;;;;;3.70;93.13;98757.06;12173529;19;20089;-82
2023/03/06 06:03:13;;;;;;;16.33;7.10;;;;;;;3.70;93.31;98757.06;12201426;19;20488;-81
2023/03/06 06:07:15;;;;;;;16.23;7.68;;;;;;;3.71;93.69;98758.72;12179441;19;20025;-82
2023/03/06 06:11:19;;;;;;;16.92;7.43;;;;;;;3.73;93.22;98753.88;12196166;19;20015;-80
2023/03/06 06:15:21;;;;;;;16.40;7.32;;;;;;;3.71;94.05;98758.72;12203275;19;20035;-81
2023/03/06 06:19:23;;;;;;;14.02;6.78;;;;;;;3.71;93.32;98753.28;12184259;19;20010;-81
2023/03/06 06:23:24;;;;;;;15.95;7.53;;;;;;;3.77;93.27;98755.06;12205493;19;20006;-83
2023/03/06 06:27:26;;;;;;;15.20;7.25;;;;;;;3.80;93.12;98760.88;12208472;19;20003;-81
2023/03/06 06:31:28;;;;;;;15.45;6.97;;;;;;;3.83;92.73;98762.31;12183538;19;20006;-80
2023/03/06 06:35:34;;;;;;;15.60;7.47;;;;;;;3.87;92.33;98766.25;12184050;19;20006;-81
2023/03/06 06:39:39;;;;;;;13.95;6.68;;;;;;;3.83;92.71;98771.31;12206398;19;20044;-81
2023/03/06 06:43:41;;;;;;;14.73;6.90;;;;;;;3.83;92.01;98768.59;12187625;19;20014;-81
2023/03/06 06:47:43;;;;;;;18.45;7.38;;;;;;;3.85;91.77;98773.81;12210833;19;20091;-81
2023/03/06 06:51:45;;;;;;;16.10;7.22;;;;;;;3.85;91.81;98768.38;12214227;19;20010;-83
2023/03/06 06:55:47;;;;;;;18.00;7.60;;;;;;;3.92;91.94;98771.00;12190649;19;20015;-81
2023/03/06 06:59:50;;;;;;;16.33;7.03;;;;;;;3.96;91.98;98770.31;12213848;19;20060;-83
2023/03/06 07:03:55;;;;;;;17.67;7.22;;;;;;;3.99;91.84;98769.84;12209336;19;20248;-81
2023/03/06 07:07:57;;;;;;;13.15;6.65;;;;;;;3.98;91.73;98776.34;12190991;19;20011;-81
2023/03/06 07:11:58;;;;;;;15.68;7.28;;;;;;;4.00;91.60;98773.41;12210480;19;20018;-81
2023/03/06 07:16:00;;;;;;;14.25;7.32;;;;;;;4.04;91.51;98780.84;12207260;19;20062;-81
2023/03/06 07:20:09;;;;;;;15.05;7.78;;;;;;;4.05;91.42;98779.00;12184370;19;20014;-81
2023/03/06 07:24:11;;;;;;;19.85;8.15;;;;;;;4.08;91.43;98781.25;12207256;19;20434;-81
2023/03/06 07:28:13;;;;;;;17.73;7.80;;;;;;;4.21;91.28;98774.75;12207285;19;20006;-81
2023/03/06 07:32:23;;;;;;;15.38;7.13;;;;;;;4.47;91.16;98768.03;12213908;19;20721;-82
2023/03/06 07:36:27;;;;;;;14.40;7.05;;;;;;;4.80;89.95;98772.91;12216194;19;20003;-84
2023/03/06 07:40:31;;;;;;;16.27;7.18;;;;;;;4.98;88.49;98774.69;12189830;19;20010;-82
2023/03/06 07:44:36;;;;;;;16.17;8.07;;;;;;;5.13;87.75;98769.56;12206254;19;20418;-81
2023/03/06 07:48:43;;;;;;;18.25;7.15;;;;;;;5.20;87.04;98772.16;12209553;19;20456;-81
2023/03/06 07:52:47;;;;;;;;;;;;;;;5.13;86.63;98771.47;12186364;19;20106;-81
2023/03/06 07:56:51;;;;;;;17.52;7.30;;;;;;;5.01;87.08;98780.50;12211174;19;19934;-81
2023/03/06 08:00:56;;;;;;;14.00;7.47;;;;;;;4.97;87.16;98787.50;12212661;19;20042;-82
2023/03/06 08:05:03;;;;;;;19.92;7.70;;;;;;;4.89;87.73;98782.41;12196588;19;20441;-82
2023/03/06 08:09:04;;;;;;;17.23;7.70;;;;;;;4.86;88.26;98780.16;12219205;19;20017;-82
2023/03/06 08:13:06;;;;;;;19.23;7.77;;;;;;;4.93;88.18;98780.84;12212646;19;20011;-81
2023/03/06 08:17:08;;;;;;;19.75;7.78;;;;;;;4.95;88.06;98781.44;12193796;19;20629;-82
2023/03/06 08:21:15;;;;;;;18.33;8.20;;;;;;;4.99;88.12;98798.19;12213901;19;20111;-81
2023/03/06 08:25:20;;;;;;;14.88;7.28;;;;;;;5.04;87.95;98790.09;12192897;19;20345;-82
2023/03/06 08:29:21;;;;;;;17.02;7.43;;;;;;;4.97;88.20;98787.50;12210375;19;19999;-81
2023/03/06 08:33:23;;;;;;;15.48;7.88;;;;;;;5.00;88.25;98797.94;12205051;19;20078;-81
2023/03/06 08:37:26;;;;;;;17.58;7.57;;;;;;;5.17;88.26;98799.94;12183572;19;20347;-81
2023/03/06 08:41:30;;;;;;;15.82;7.78;;;;;;;5.21;87.31;98796.50;12203580;19;20007;-81
2023/03/06 08:45:33;;;;;;;16.52;7.32;;;;;;;5.22;86.78;98802.78;12205125;19;20010;-81
2023/03/06 08:49:38;;;;;;;18.38;7.43;;;;;;;5.29;87.09;98800.75;12182770;19;20018;-81
2023/03/06 08:53:42;;;;;;;14.73;7.43;;;;;;;5.25;86.04;98802.31;12206879;19;20011;-81
2023/03/06 08:57:45;;;;;;;12.95;6.78;;;;;;;5.28;85.81;98811.94;12212644;19;20024;-81
2023/03/06 09:01:47;;;;;;;16.05;7.60;;;;;;;5.33;85.70;98812.88;12193121;19;20143;-81
2023/03/06 09:05:49;;;;;;;13.30;6.65;;;;;;;5.48;85.42;98815.94;12224871;19;20018;-82
2023/03/06 09:09:56;;;;;;;13.10;7.13;;;;;;;5.75;83.62;98820.84;12262965;19;20010;-82
2023/03/06 09:14:01;;;;;;;14.63;7.10;;;;;;;5.87;81.86;98820.81;12246238;19;20006;-83
2023/03/06 09:18:03;;;;;;;16.33;7.50;;;;;;;5.99;81.53;98818.06;12262824;19;20031;-82
2023/03/06 09:22:06;;;;;;;;;;;;;;;6.15;80.88;98812.63;12260396;19;20002;-85
2023/03/06 09:26:11;;;;;;;14.85;6.70;;;;;;;6.25;79.54;98811.16;12223446;19;19974;-82
2023/03/06 09:30:17;;;;;;;14.52;6.75;;;;;;;6.43;78.64;98810.13;12220269;19;20011;-83
2023/03/06 09:34:19;;;;;;;13.48;6.75;;;;;;;6.55;78.02;98821.81;12229083;19;20006;-83
2023/03/06 09:38:24;;;;;;;18.80;8.13;;;;;;;6.69;76.40;98806.69;12258834;19;20015;-83
2023/03/06 09:42:27;;;;;;;16.83;7.97;;;;;;;6.88;74.15;98811.94;12251624;19;20010;-84
2023/03/06 09:46:51;;;;;;;17.52;8.15;;;;;;;6.67;73.94;98817.09;12232717;19;20054;-83
2023/03/06 09:51:06;;;;;;;14.80;7.18;;;;;;;6.72;74.17;98817.19;12257217;19;20003;-82
2023/03/06 09:55:14;;;;;;;15.15;6.93;;;;;;;6.77;72.91;98816.41;12256600;19;19995;-84
2023/03/06 09:59:23;;;;;;;14.52;7.35;;;;;;;6.75;71.60;98808.47;12245234;19;20010;-82
2023/03/06 10:03:35;;;;;;;16.60;7.88;;;;;;;6.92;70.68;98811.16;12245679;19;20492;-83
2023/03/06 10:08:06;;;;;;;19.52;8.35;;;;;;;7.13;70.59;98812.31;12204305;19;20074;-83
2023/03/06 10:12:34;;;;;;;18.10;8.23;;;;;;;7.42;68.19;98814.91;12223407;19;20116;-83
2023/03/06 10:16:36;;;;;;;18.75;6.93;;;;;;;7.29;68.00;98811.44;12204533;19;20019;-82
2023/03/06 10:20:53;;;;;;;16.58;7.72;;;;;;;7.17;66.89;98808.00;12232994;19;20024;-82
2023/03/06 10:25:18;;;;;;;15.43;7.63;;;;;;;7.45;68.34;98803.44;12224310;19;20074;-82
2023/03/06 10:29:42;;;;;;;18.92;7.57;;;;;;;7.75;65.63;98811.22;12204355;19;20060;-82
2023/03/06 10:34:13;;;;;;;19.08;7.68;;;;;;;7.50;63.90;98807.06;12236537;19;20017;-81
2023/03/06 10:38:31;;;;;;;16.75;7.38;;;;;;;7.45;66.36;98800.69;12252463;19;20027;-83
2023/03/06 10:42:33;;;;;;;11.77;6.65;;;;;;;7.52;64.68;98801.31;12270397;19;20003;-87
2023/03/06 10:46:43;;;;;;;16.60;7.53;;;;;;;7.25;65.01;98799.31;12219186;19;21653;-81
2023/03/06 10:50:45;;;;;;;13.63;6.75;;;;;;;7.17;65.37;98812.63;12213308;19;20010;-83
2023/03/06 10:54:49;;;;;;;15.90;7.38;;;;;;;7.19;64.53;98796.78;12216718;19;20007;-81
2023/03/06 10:59:16;;;;;;;12.48;6.95;;;;;;;7.18;64.85;98793.19;12194791;19;20464;-80
2023/03/06 11:03:22;;;;;;;15.60;7.30;;;;;;;6.94;64.57;98802.72;12215149;19;20068;-82
2023/03/06 11:07:27;;;;;;;16.17;6.95;;;;;;;6.82;65.95;98806.38;12192289;19;20006;-81
2023/03/06 11:11:29;;;;;;;16.08;7.43;;;;;;;7.09;64.98;98794.72;12218839;19;20693;-83
2023/03/06 11:15:38;;;;;;;17.63;8.27;;;;;;;7.51;63.95;98797.75;12224080;19;20007;-81
2023/03/06 11:19:42;;;;;;;16.10;7.63;;;;;;;7.92;62.01;98790.03;12201962;19;20006;-82
2023/03/06 11:23:46;;;;;;;12.33;6.53;;;;;;;8.38;59.31;98790.50;12220960;19;20010;-84
2023/03/06 11:28:24;;;;;;;17.75;8.10;;;;;;;8.72;56.49;98783.94;12220460;19;20010;-82
2023/03/06 11:32:35;;;;;;;13.60;7.00;;;;;;;8.71;55.26;98771.28;12195432;19;20002;-82
2023/03/06 11:36:55;;;;;;;16.48;7.15;;;;;;;9.01;54.40;98776.16;12220489;19;20145;-80
2023/03/06 11:41:00;;;;;;;12.02;7.03;;;;;;;8.91;53.54;98785.16;12194193;19;20480;-81
2023/03/06 11:45:30;;;;;;;14.63;7.75;;;;;;;8.99;53.27;98767.38;12214417;19;20010;-85
2023/03/06 11:49:43;;;;;;;15.73;7.72;;;;;;;8.85;51.53;98756.00;12191065;19;20011;-85
2023/03/06 11:53:45;;;;;;;14.00;6.68;;;;;;;8.92;51.65;98761.25;12214835;19;20072;-82
2023/03/06 11:57:53;;;;;;;16.85;7.88;;;;;;;8.83;51.07;98752.69;12217068;19;20417;-81
2023/03/06 12:02:01;;;;;;;13.52;7.45;;;;;;;8.76;52.52;98741.13;12198692;19;20017;-84
2023/03/06 12:06:28;;;;;;;15.70;7.35;;;;;;;8.73;51.36;98747.13;12223664;19;20098;-83
2023/03/06 12:10:40;;;;;;;12.32;6.38;;;;;;;8.44;51.34;98740.03;12197455;19;20429;-82
2023/03/06 12:15:32;;;;;;;14.00;7.35;;;;;;;8.51;52.31;98737.09;12215034;19;20030;-83
2023/03/06 12:19:37;;;;;;;15.05;6.68;;;;;;;8.86;50.89;98746.66;12194004;19;20003;-82
2023/03/06 12:24:01;;;;;;;15.75;8.07;;;;;;;8.94;49.83;98743.44;12211935;19;20007;-82
2023/03/06 12:28:27;;;;;;;17.00;8.15;;;;;;;9.18;49.97;98724.59;12223447;19;20484;-84
2023/03/06 12:32:54;;;;;;;12.80;7.68;;;;;;;9.45;50.28;98731.88;12191081;19;20098;-82
2023/03/06 12:37:41;;;;;;;16.15;8.40;;;;;;;9.64;48.35;98719.31;12218379;19;20022;-81
2023/03/06 12:42:15;;;;;;;16.42;8.25;;;;;;;9.66;48.84;98721.75;12188052;19;20043;-81
2023/03/06 12:46:26;;;;;;;16.38;7.82;;;;;;;9.43;49.28;98706.56;12190402;19;20017;-82
2023/03/06 12:50:31;;;;;;;14.55;7.22;;;;;;;9.46;48.17;98711.50;12213089;19;20083;-81
2023/03/06 12:54:39;;;;;;;16.58;7.85;;;;;;;9.22;46.95;98720.25;12215641;19;20006;-81
2023/03/06 12:58:50;;;;;;;17.30;9.55;;;;;;;9.26;47.93;98721.34;12189979;19;20007;-86
2023/03/06 13:03:10;;;;;;;14.15;7.13;;;;;;;8.89;50.16;98715.91;12207578;19;20006;-82
2023/03/06 13:07:26;;;;;;;17.08;8.75;;;;;;;8.92;51.42;98709.06;12235948;19;20036;-83
2023/03/06 13:12:02;;;;;;;17.15;8.07;;;;;;;9.34;50.86;98711.78;12205602;19;20069;-81
2023/03/06 13:16:31;;;;;;;16.30;7.80;;;;;;;9.71;49.91;98702.53;12209296;19;20744;-81
2023/03/06 13:20:44;;;;;;;16.45;7.72;;;;;;;9.59;49.83;98711.84;12188068;19;20074;-82
2023/03/06 13:24:46;;;;;;;14.85;8.15;;;;;;;9.58;50.60;98687.38;12217458;19;20467;-83
2023/03/06 13:28:53;;;;;;;16.67;7.78;;;;;;;9.56;49.04;98690.38;12200527;19;20027;-81
2023/03/06 13:32:55;;;;;;;13.75;7.30;;;;;;;9.50;49.70;98696.16;12221959;19;20156;-82
2023/03/06 13:37:15;;;;;;;15.67;7.17;;;;;;;9.43;50.09;98699.16;12222053;19;20002;-80
2023/03/06 13:41:19;;;;;;;14.02;6.65;;;;;;;9.30;50.79;98688.66;12198395;19;20042;-83
2023/03/06 13:45:26;;;;;;;21.13;8.13;;;;;;;9.13;50.70;98686.09;12220655;19;20625;-82
2023/03/06 13:49:30;;;;;;;13.82;7.00;;;;;;;8.95;51.27;98679.13;12196042;19;20010;-83
2023/03/06 13:53:45;;;;;;;15.55;7.03;;;;;;;8.61;51.68;98678.69;12214149;19;20495;-81
2023/03/06 13:58:13;;;;;;;13.40;7.25;;;;;;;8.41;52.45;98671.13;12218567;19;20002;-81
2023/03/06 14:02:38;;;;;;;14.93;7.60;;;;;;;8.18;52.86;98678.63;12196430;19;20050;-83
2023/03/06 14:06:49;;;;;;;12.65;6.78;;;;;;;7.85;55.60;98685.19;12229723;19;20030;-84
2023/03/06 14:11:04;;;;;;;17.90;7.50;;;;;;;7.33;60.66;98673.94;12199401;19;20030;-81
2023/03/06 14:15:35;;;;;;;14.77;7.20;;;;;;;7.12;60.82;98676.41;12219582;19;20007;-81
2023/03/06 14:19:41;;;;;;;14.68;6.60;;;;;;;6.98;61.04;98666.91;12197301;19;20007;-81
2023/03/06 14:23:45;;;;;;;13.05;6.95;;;;;;;6.84;62.22;98661.84;12213333;19;20719;-81
2023/03/06 14:27:51;;;;;;;13.15;6.25;;;;;;;6.73;64.23;98661.94;12244933;19;20107;-81
2023/03/06 14:31:58;;;;;;;15.32;7.60;;;;;;;6.77;64.41;98654.88;12241589;19;20013;-82
2023/03/06 14:36:05;;;;;;;15.52;7.05;;;;;;;6.66;65.71;98644.84;12216789;19;20002;-81
2023/03/06 14:40:12;;;;;;;13.10;6.82;;;;;;;6.61;65.25;98649.19;12215997;19;21235;-82
2023/03/06 14:44:25;;;;;;;13.93;6.07;;;;;;;6.53;64.45;98648.78;12194377;19;20465;-82
2023/03/06 14:48:41;;;;;;;17.30;6.10;;;;;;;6.54;63.72;98653.19;12222537;19;20010;-83
2023/03/06 14:52:45;;;;;;;16.75;6.60;;;;;;;6.36;64.37;98657.84;12190939;19;20011;-83
2023/03/06 14:56:53;;;;;;;13.98;6.50;;;;;;;6.18;65.75;98662.75;12215164;19;20007;-81
2023/03/06 15:01:00;;;;;;;13.25;7.22;;;;;;;6.00;66.85;98659.19;12213485;19;20150;-82
2023/03/06 15:05:10;;;;;;;17.92;6.85;;;;;;;6.00;66.76;98656.47;12193179;19;20062;-83
2023/03/06 15:09:25;;;;;;;16.90;6.80;;;;;;;5.96;67.53;98659.97;12216940;19;20017;-81
2023/03/06 15:13:30;;;;;;;14.57;6.78;;;;;;;5.97;67.13;98651.50;12184372;19;20335;-83
2023/03/06 15:17:42;;;;;;;16.05;7.60;;;;;;;6.02;68.32;98657.06;12215989;19;20095;-83
2023/03/06 15:21:47;;;;;;;11.63;5.90;;;;;;;6.06;68.48;98650.00;12213226;19;20010;-82
2023/03/06 15:25:59;;;;;;;10.80;5.18;;;;;;;6.06;68.27;98650.00;12193844;19;20015;-83
2023/03/06 15:30:26;;;;;;;12.23;5.80;;;;;;;6.24;67.23;98648.91;12213202;19;20007;-82
2023/03/06 15:34:28;;;;;;;8.88;5.40;;;;;;;6.39;67.21;98645.56;12194667;19;20030;-82
2023/03/06 15:38:40;;;;;;;12.18;6.38;;;;;;;6.35;68.41;98652.63;12229173;19;20010;-82
2023/03/06 15:42:42;;;;;;;14.63;5.63;;;;;;;6.37;68.30;98651.31;12224521;19;20010;-80
2023/03/06 15:46:44;;;;;;;12.30;5.25;;;;;;;6.36;68.06;98646.06;12194275;19;20120;-82
2023/03/06 15:50:45;;;;;;;7.45;4.00;;;;;;;6.33;68.59;98655.59;12217426;19;21019;-81
2023/03/06 15:54:49;;;;;;;10.00;4.90;;;;;;;6.27;69.92;98670.28;12213826;19;20524;-80
2023/03/06 15:58:51;;;;;;;11.75;5.13;;;;;;;6.12;70.63;98665.41;12196835;19;20414;-81
2023/03/06 16:02:55;;;;;;;11.35;6.32;;;;;;;5.85;73.56;98665.19;12216053;19;20006;-82
2023/03/06 16:06:57;;;;;;;13.35;6.07;;;;;;;5.66;74.85;98655.59;12219009;19;20365;-82
2023/03/06 16:10:59;;;;;;;13.07;5.22;;;;;;;5.55;74.66;98661.94;12194327;19;20019;-81
2023/03/06 16:15:03;;;;;;;12.90;6.60;;;;;;;5.45;75.58;98663.41;12216941;19;20011;-82
2023/03/06 16:19:13;;;;;;;15.73;5.97;;;;;;;5.36;75.57;98656.69;12218237;19;20003;-81
2023/03/06 16:23:26;;;;;;;14.68;6.03;;;;;;;5.34;76.51;98668.91;12195984;19;20006;-81
2023/03/06 16:27:28;;;;;;;10.60;5.43;;;;;;;5.30;75.66;98660.38;12244683;19;20024;-82
2023/03/06 16:31:38;;;;;;;15.68;6.95;;;;;;;5.27;76.99;98668.25;12253122;19;20002;-83
2023/03/06 16:35:43;;;;;;;13.02;5.82;;;;;;;5.19;77.61;98662.09;12253748;19;20006;-81
2023/03/06 16:39:45;;;;;;;15.25;5.72;;;;;;;5.19;77.59;98662.09;12225107;19;20006;-81
2023/03/06 16:43:47;;;;;;;13.52;5.93;;;;;;;5.18;77.69;98670.53;12203569;19;20007;-82
2023/03/06 16:47:50;;;;;;;12.50;5.95;;;;;;;5.21;77.19;98676.34;12231405;19;20014;-82
2023/03/06 16:51:52;;;;;;;13.65;6.60;;;;;;;5.20;77.86;98680.13;12215512;19;20054;-83
2023/03/06 16:55:54;;;;;;;14.73;5.72;;;;;;;5.18;78.38;98674.09;12190904;19;20095;-82
2023/03/06 16:59:56;;;;;;;15.10;6.70;;;;;;;5.20;78.19;98671.91;12214491;19;20010;-82
2023/03/06 17:03:58;;;;;;;12.57;6.30;;;;;;;5.20;78.09;98671.09;12215862;19;20015;-82
2023/03/06 17:08:00;;;;;;;16.55;7.78;;;;;;;5.16;78.83;98672.66;12190225;19;20019;-81
2023/03/06 17:12:02;;;;;;;13.90;7.00;;;;;;;5.10;79.29;98679.09;12208219;19;20604;-81
2023/03/06 17:16:05;;;;;;;12.80;6.53;;;;;;;5.07;79.65;98679.59;12201304;19;20011;-81
2023/03/06 17:20:07;;;;;;;13.52;6.72;;;;;;;5.01;80.23;98682.19;12184586;19;20460;-82
2023/03/06 17:24:09;;;;;;;14.15;6.70;;;;;;;4.96;80.60;98693.00;12210271;19;20086;-81
2023/03/06 17:28:12;;;;;;;14.80;7.20;;;;;;;4.94;80.59;98686.97;12209091;19;20043;-81
2023/03/06 17:32:14;;;;;;;14.95;7.30;;;;;;;4.90;81.39;98690.41;12183988;19;20022;-81
2023/03/06 17:36:18;;;;;;;15.75;8.07;;;;;;;4.86;81.57;98684.63;12206959;19;20002;-82
2023/03/06 17:40:20;;;;;;;19.65;8.45;;;;;;;4.85;81.99;98690.28;12187923;19;20003;-81
2023/03/06 17:44:21;;;;;;;15.35;7.85;;;;;;;4.85;81.71;98696.63;12209562;19;20034;-81
2023/03/06 17:48:23;;;;;;;19.40;8.60;;;;;;;4.86;81.39;98701.00;12210340;19;20493;-81
2023/03/06 17:52:25;;;;;;;20.30;8.80;;;;;;;4.81;81.79;98700.88;12185463;19;20471;-81
2023/03/06 17:56:27;;;;;;;23.83;9.57;;;;;;;4.77;82.02;98702.44;12203654;19;20010;-82
2023/03/06 18:00:28;;;;;;;20.13;9.18;;;;;;;4.72;82.98;98705.03;12208539;19;20690;-81
2023/03/06 18:04:30;;;;;;;21.48;10.07;;;;;;;4.71;82.82;98708.84;12186448;19;20014;-81
2023/03/06 18:08:33;;;;;;;;;;;;;;;4.63;83.99;98704.56;12213162;19;20547;-81
2023/03/06 18:12:35;;;;;;;16.05;8.63;;;;;;;4.60;83.51;98699.59;12219727;19;20628;-82
2023/03/06 18:16:37;;;;;;;14.48;7.05;;;;;;;4.52;83.70;98711.72;12199967;19;20011;-81
2023/03/06 18:20:40;;;;;;;16.83;7.70;;;;;;;4.53;82.97;98702.44;12222829;19;20576;-82
2023/03/06 18:24:42;;;;;;;18.67;7.93;;;;;;;4.48;83.45;98705.06;12222397;19;20013;-82
2023/03/06 18:28:46;;;;;;;19.92;8.68;;;;;;;4.43;83.73;98710.41;12203752;19;20011;-83
2023/03/06 18:32:48;;;;;;;21.88;9.57;;;;;;;4.44;83.50;98713.97;12232054;19;20574;-82
2023/03/06 18:36:51;;;;;;;18.98;9.07;;;;;;;4.46;83.47;98711.81;12238103;19;20080;-82
2023/03/06 18:40:53;;;;;;;21.70;8.48;;;;;;;4.46;83.15;98709.94;12223939;19;20362;-82
2023/03/06 18:44:55;;;;;;;22.55;8.55;;;;;;;4.46;83.20;98709.06;12241866;19;20010;-82
2023/03/06 18:48:56;;;;;;;20.65;8.82;;;;;;;4.42;82.97;98706.00;12242089;19;20010;-84
2023/03/06 18:52:58;;;;;;;18.27;9.05;;;;;;;4.38;82.21;98702.09;12204600;19;20007;-82
2023/03/06 18:57:00;;;;;;;16.80;8.63;;;;;;;4.33;82.41;98713.69;12217275;19;20094;-82
2023/03/06 19:01:06;;;;;;;21.55;9.30;;;;;;;4.34;81.88;98709.06;12236654;19;20031;-82
2023/03/06 19:05:09;;;;;;;20.10;9.20;;;;;;;4.29;81.80;98706.25;12238509;19;20002;-83
2023/03/06 19:09:11;;;;;;;20.58;9.55;;;;;;;4.26;82.36;98701.25;12272334;19;20014;-82